createdAt,value
2024-02-09T00:00:23.377Z,8.43
2024-02-09T00:02:50.004Z,7.28
2024-02-09T00:05:17.779Z,8.48
2024-02-09T00:07:52.221Z,8.48
2024-02-09T00:10:20.274Z,7.60
2024-02-09T00:12:49.291Z,6.88
2024-02-09T00:15:19.380Z,7.45
2024-02-09T00:17:46.201Z,6.90
2024-02-09T00:20:13.259Z,7.90
2024-02-09T00:22:40.323Z,7.68
2024-02-09T00:25:11.376Z,8.35
2024-02-09T00:27:39.308Z,7.00
2024-02-09T00:30:07.205Z,6.65
2024-02-09T00:32:37.130Z,10.40
2024-02-09T00:35:04.701Z,8.52
2024-02-09T00:37:31.471Z,5.35
2024-02-09T00:39:58.437Z,7.72
2024-02-09T00:42:25.087Z,8.85
2024-02-09T00:44:51.824Z,6.93
2024-02-09T00:47:18.549Z,8.90
2024-02-09T00:49:46.518Z,7.63
2024-02-09T00:52:13.276Z,6.53
2024-02-09T00:54:39.883Z,9.70
2024-02-09T00:57:06.893Z,8.05
2024-02-09T00:59:34.729Z,8.18
2024-02-09T01:02:05.660Z,6.20
2024-02-09T01:04:37.545Z,9.73
2024-02-09T01:07:05.060Z,7.80
2024-02-09T01:09:34.877Z,10.02
2024-02-09T01:12:08.298Z,9.05
2024-02-09T01:14:54.349Z,9.80
2024-02-09T01:17:39.837Z,6.40
2024-02-09T01:20:24.965Z,6.47
2024-02-09T01:23:10.090Z,6.90
2024-02-09T01:25:54.942Z,8.30
2024-02-09T01:28:40.195Z,7.38
2024-02-09T01:31:26.594Z,8.48
2024-02-09T01:34:11.662Z,8.02
2024-02-09T01:36:57.065Z,8.02
2024-02-09T01:39:42.251Z,7.88
2024-02-09T01:42:27.730Z,7.53
2024-02-09T01:45:13.015Z,7.57
2024-02-09T01:47:58.595Z,6.95
2024-02-09T01:50:43.929Z,7.72
2024-02-09T01:53:29.834Z,6.57
2024-02-09T01:56:15.152Z,10.20
2024-02-09T01:59:00.364Z,7.50
2024-02-09T02:01:45.848Z,5.95
2024-02-09T02:04:31.176Z,8.65
2024-02-09T02:07:16.898Z,12.50
2024-02-09T02:10:02.428Z,9.10
2024-02-09T02:12:47.566Z,6.93
2024-02-09T02:15:33.105Z,6.75
2024-02-09T02:18:18.567Z,7.38
2024-02-09T02:21:03.976Z,6.85
2024-02-09T02:23:49.502Z,8.07
2024-02-09T02:26:34.923Z,7.18
2024-02-09T02:29:20.528Z,8.77
2024-02-09T02:32:05.938Z,6.60
2024-02-09T02:34:51.383Z,9.52
2024-02-09T02:37:36.631Z,5.93
2024-02-09T02:40:22.195Z,7.38
2024-02-09T02:42:48.744Z,8.32
2024-02-09T02:45:15.292Z,5.25
2024-02-09T02:47:42.197Z,8.23
2024-02-09T02:50:32.569Z,7.28
2024-02-09T02:53:18.056Z,7.45
2024-02-09T02:56:03.502Z,7.93
2024-02-09T02:58:48.839Z,6.60
2024-02-09T03:01:34.325Z,6.82
2024-02-09T03:04:19.581Z,8.95
2024-02-09T03:07:03.807Z,8.65
2024-02-09T03:09:32.670Z,6.20
2024-02-09T03:12:01.409Z,7.07
2024-02-09T03:14:29.277Z,6.50
2024-02-09T03:16:58.782Z,10.90
2024-02-09T03:19:25.609Z,7.70
2024-02-09T03:21:55.468Z,5.30
2024-02-09T03:24:22.546Z,7.63
2024-02-09T03:26:49.143Z,6.10
2024-02-09T03:29:15.753Z,9.18
2024-02-09T03:31:44.243Z,6.15
2024-02-09T03:34:11.348Z,5.95
2024-02-09T03:36:38.155Z,5.55
2024-02-09T03:39:07.072Z,7.18
2024-02-09T03:41:33.788Z,5.68
2024-02-09T03:44:06.042Z,7.80
2024-02-09T03:46:33.876Z,5.38
2024-02-09T03:49:01.006Z,6.20
2024-02-09T03:51:27.713Z,5.85
2024-02-09T03:53:54.338Z,4.65
2024-02-09T03:56:20.955Z,5.65
2024-02-09T03:58:48.058Z,6.15
2024-02-09T04:01:15.603Z,5.75
2024-02-09T04:03:42.399Z,5.55
2024-02-09T04:06:09.289Z,6.68
2024-02-09T04:08:36.007Z,8.82
2024-02-09T04:11:02.730Z,5.65
2024-02-09T04:13:29.496Z,4.28
2024-02-09T04:15:58.497Z,6.72
2024-02-09T04:18:30.068Z,5.40
2024-02-09T04:20:57.023Z,5.22
2024-02-09T04:23:23.833Z,7.50
2024-02-09T04:25:50.418Z,6.10
2024-02-09T04:28:19.095Z,4.57
2024-02-09T04:30:47.668Z,7.43
2024-02-09T04:33:17.190Z,7.63
2024-02-09T04:35:44.532Z,4.95
2024-02-09T04:38:11.717Z,5.53
2024-02-09T04:40:38.450Z,4.80
2024-02-09T04:43:06.655Z,5.10
2024-02-09T04:45:33.706Z,6.00
2024-02-09T04:48:00.569Z,5.50
2024-02-09T04:50:27.287Z,3.83
2024-02-09T04:52:53.907Z,3.22
2024-02-09T04:55:20.627Z,5.60
2024-02-09T04:57:47.240Z,7.50
2024-02-09T05:00:14.215Z,5.07
2024-02-09T05:02:45.227Z,5.15
2024-02-09T05:05:12.860Z,4.85
2024-02-09T05:07:40.001Z,4.93
2024-02-09T05:10:06.948Z,7.25
2024-02-09T05:12:33.616Z,6.65
2024-02-09T05:15:00.458Z,6.15
2024-02-09T05:17:27.229Z,5.55
2024-02-09T05:19:58.643Z,3.92
2024-02-09T05:22:26.154Z,4.05
2024-02-09T05:24:52.904Z,3.95
2024-02-09T05:27:21.947Z,4.60
2024-02-09T05:29:49.089Z,5.20
2024-02-09T05:32:15.968Z,5.47
2024-02-09T05:34:46.076Z,4.85
2024-02-09T05:37:14.529Z,2.95
2024-02-09T05:39:46.234Z,3.72
2024-02-09T05:42:12.911Z,4.32
2024-02-09T05:44:39.537Z,3.95
2024-02-09T05:47:06.172Z,4.30
2024-02-09T05:49:32.954Z,2.33
2024-02-09T05:51:59.882Z,3.80
2024-02-09T05:54:26.708Z,3.30
2024-02-09T05:56:53.589Z,6.13
2024-02-09T05:59:22.879Z,6.05
2024-02-09T06:01:49.942Z,3.35
2024-02-09T06:04:17.021Z,3.88
2024-02-09T06:06:47.033Z,2.88
2024-02-09T06:09:13.776Z,4.22
2024-02-09T06:11:40.351Z,3.67
2024-02-09T06:14:07.040Z,3.25
2024-02-09T06:16:33.714Z,4.68
2024-02-09T06:19:00.759Z,4.35
2024-02-09T06:21:27.515Z,4.50
2024-02-09T06:23:54.119Z,2.85
2024-02-09T06:26:23.789Z,3.10
2024-02-09T06:28:51.851Z,3.33
2024-02-09T06:31:23.229Z,7.20
2024-02-09T06:33:51.551Z,5.25
2024-02-09T06:36:19.617Z,3.10
2024-02-09T06:38:46.214Z,2.75
2024-02-09T06:41:13.104Z,3.70
2024-02-09T06:43:40.367Z,4.25
2024-02-09T06:46:07.104Z,4.55
2024-02-09T06:48:34.406Z,2.55
2024-02-09T06:51:01.155Z,2.80
2024-02-09T06:53:27.789Z,2.47
2024-02-09T06:55:55.068Z,3.22
2024-02-09T06:58:25.049Z,3.28
2024-02-09T07:00:55.261Z,4.63
2024-02-09T07:03:23.378Z,2.40
2024-02-09T07:05:53.029Z,2.95
2024-02-09T07:08:27.624Z,3.80
2024-02-09T07:10:54.368Z,3.13
2024-02-09T07:13:21.105Z,5.18
2024-02-09T07:15:47.648Z,5.38
2024-02-09T07:18:14.375Z,3.47
2024-02-09T07:20:42.069Z,3.75
2024-02-09T07:23:08.699Z,3.45
2024-02-09T07:25:35.279Z,8.05
2024-02-09T07:28:02.499Z,2.75
2024-02-09T07:30:29.205Z,4.70
2024-02-09T07:32:55.949Z,4.13
2024-02-09T07:35:22.793Z,4.35
2024-02-09T07:37:49.436Z,3.90
2024-02-09T07:40:20.165Z,3.72
2024-02-09T07:42:47.793Z,4.40
2024-02-09T07:45:17.084Z,3.67
2024-02-09T07:47:50.269Z,2.40
2024-02-09T07:50:17.146Z,3.63
2024-02-09T07:52:43.985Z,4.32
2024-02-09T07:55:10.940Z,4.45
2024-02-09T07:57:37.608Z,3.22
2024-02-09T08:00:09.456Z,5.05
2024-02-09T08:02:36.227Z,4.18
2024-02-09T08:05:09.386Z,5.30
2024-02-09T08:07:37.620Z,5.25
2024-02-09T08:10:05.374Z,3.22
2024-02-09T08:12:33.549Z,2.90
2024-02-09T08:15:00.662Z,4.57
2024-02-09T08:17:28.125Z,4.47
2024-02-09T08:19:55.025Z,4.40
2024-02-09T08:22:24.114Z,2.83
2024-02-09T08:24:50.981Z,4.43
2024-02-09T08:27:17.718Z,3.60
2024-02-09T08:29:44.642Z,2.72
2024-02-09T08:32:11.303Z,4.82
2024-02-09T08:34:38.040Z,3.15
2024-02-09T08:37:04.826Z,5.60
2024-02-09T08:39:31.731Z,4.28
2024-02-09T08:41:58.363Z,5.65
2024-02-09T08:44:24.968Z,5.60
2024-02-09T08:46:52.025Z,8.30
2024-02-09T08:49:19.072Z,4.72
2024-02-09T08:51:45.969Z,4.22
2024-02-09T08:54:12.671Z,4.05
2024-02-09T08:56:39.272Z,4.70
2024-02-09T08:59:11.028Z,3.80
2024-02-09T09:01:39.330Z,2.92
2024-02-09T09:04:06.090Z,2.95
2024-02-09T09:06:34.033Z,4.32
2024-02-09T09:09:02.318Z,3.63
2024-02-09T09:11:28.989Z,4.43
2024-02-09T09:13:55.611Z,2.78
2024-02-09T09:16:22.299Z,2.10
2024-02-09T09:18:51.623Z,3.55
2024-02-09T09:21:18.488Z,3.65
2024-02-09T09:23:45.310Z,4.78
2024-02-09T09:26:17.819Z,5.40
2024-02-09T09:28:52.475Z,4.78
2024-02-09T09:31:21.220Z,4.65
2024-02-09T09:33:48.107Z,4.82
2024-02-09T09:36:15.320Z,2.72
2024-02-09T09:38:43.793Z,6.10
2024-02-09T09:41:11.793Z,4.43
2024-02-09T09:43:39.125Z,3.33
2024-02-09T09:46:13.067Z,3.72
2024-02-09T09:48:40.546Z,3.47
2024-02-09T09:51:07.276Z,4.95
2024-02-09T09:53:43.826Z,5.38
2024-02-09T09:56:11.522Z,4.10
2024-02-09T09:58:39.250Z,5.22
2024-02-09T10:01:11.323Z,6.47
2024-02-09T10:03:43.338Z,5.82
2024-02-09T10:06:10.327Z,5.97
2024-02-09T10:08:37.610Z,8.05
2024-02-09T10:11:07.409Z,5.65
2024-02-09T10:13:38.899Z,5.32
2024-02-09T10:16:06.380Z,3.65
2024-02-09T10:18:35.359Z,5.07
2024-02-09T10:21:02.232Z,5.43
2024-02-09T10:23:30.353Z,6.57
2024-02-09T10:26:03.777Z,6.88
2024-02-09T10:28:31.129Z,7.25
2024-02-09T10:31:00.765Z,7.10
2024-02-09T10:33:28.026Z,7.25
2024-02-09T10:35:56.608Z,7.57
2024-02-09T10:38:24.367Z,8.00
2024-02-09T10:40:58.027Z,11.35
2024-02-09T10:43:25.113Z,8.57
2024-02-09T10:45:54.508Z,6.38
2024-02-09T10:48:36.212Z,7.30
2024-02-09T10:51:07.065Z,10.32
2024-02-09T10:53:36.920Z,7.43
2024-02-09T10:56:05.177Z,8.10
2024-02-09T10:58:35.693Z,8.80
2024-02-09T11:01:05.690Z,7.63
2024-02-09T11:03:35.746Z,6.82
2024-02-09T11:06:05.529Z,8.30
2024-02-09T11:08:34.516Z,9.02
2024-02-09T11:11:05.618Z,6.88
2024-02-09T11:13:32.473Z,6.85
2024-02-09T11:16:00.682Z,7.80
2024-02-09T11:18:34.243Z,6.68
2024-02-09T11:21:08.973Z,7.90
2024-02-09T11:23:42.983Z,7.15
2024-02-09T11:26:15.091Z,7.95
2024-02-09T11:28:42.095Z,7.82
2024-02-09T11:31:13.831Z,7.70
2024-02-09T11:33:44.456Z,6.88
2024-02-09T11:36:11.089Z,8.02
2024-02-09T11:38:37.631Z,6.60
2024-02-09T11:41:04.407Z,7.25
2024-02-09T11:43:32.590Z,7.28
2024-02-09T11:45:59.187Z,7.20
2024-02-09T11:48:26.084Z,9.20
2024-02-09T11:50:58.334Z,14.50
2024-02-09T11:53:26.438Z,18.60
2024-02-09T11:55:54.194Z,20.38
2024-02-09T11:58:21.087Z,21.63
2024-02-09T12:00:51.721Z,24.23
2024-02-09T12:03:18.564Z,23.52
2024-02-09T12:05:47.401Z,22.48
2024-02-09T12:08:18.423Z,24.45
2024-02-09T12:10:45.796Z,25.85
2024-02-09T12:13:12.801Z,28.95
2024-02-09T12:15:39.762Z,26.35
2024-02-09T12:18:06.509Z,28.95
2024-02-09T12:20:33.873Z,29.27
2024-02-09T12:23:05.310Z,27.10
2024-02-09T12:25:39.410Z,26.67
2024-02-09T12:28:11.265Z,27.08
2024-02-09T12:30:38.547Z,25.85
2024-02-09T12:33:06.266Z,27.23
2024-02-09T12:35:33.040Z,26.95
2024-02-09T12:37:59.706Z,27.95
2024-02-09T12:40:26.814Z,26.17
2024-02-09T12:42:56.774Z,23.80
2024-02-09T12:45:29.573Z,25.52
2024-02-09T12:47:58.493Z,25.43
2024-02-09T12:50:29.081Z,24.45
2024-02-09T12:52:56.374Z,22.75
2024-02-09T12:55:25.169Z,21.92
2024-02-09T12:57:55.790Z,22.50
2024-02-09T13:00:25.637Z,21.10
2024-02-09T13:02:52.411Z,22.27
2024-02-09T13:07:45.597Z,19.00
2024-02-09T13:10:13.990Z,20.80
2024-02-09T13:12:40.777Z,21.75
2024-02-09T13:15:11.844Z,40.97
2024-02-09T13:17:40.709Z,24.23
2024-02-09T13:20:09.836Z,21.83
2024-02-09T13:22:39.777Z,19.63
2024-02-09T13:25:07.111Z,20.00
2024-02-09T13:27:33.980Z,20.05
2024-02-09T13:30:00.777Z,19.05
2024-02-09T13:32:33.066Z,19.58
2024-02-09T13:35:00.242Z,18.45
2024-02-09T13:37:27.127Z,19.00
2024-02-09T13:39:54.442Z,18.45
2024-02-09T13:42:22.317Z,18.75
2024-02-09T13:44:49.730Z,19.30
2024-02-09T13:47:16.363Z,16.92
2024-02-09T13:49:43.076Z,15.05
2024-02-09T13:52:09.898Z,16.40
2024-02-09T13:54:36.576Z,15.98
2024-02-09T13:57:03.330Z,16.40
2024-02-09T13:59:29.897Z,16.40
2024-02-09T14:01:56.648Z,17.80
2024-02-09T14:04:23.955Z,14.75
2024-02-09T14:06:50.699Z,14.93
2024-02-09T14:09:17.386Z,14.85
2024-02-09T14:11:45.971Z,16.77
2024-02-09T14:14:13.475Z,13.95
2024-02-09T14:16:40.252Z,13.40
2024-02-09T14:19:07.051Z,14.80
2024-02-09T14:21:33.765Z,12.77
2024-02-09T14:24:01.004Z,13.05
2024-02-09T14:26:27.585Z,11.82
2024-02-09T14:28:58.324Z,13.52
2024-02-09T14:31:25.420Z,15.60
2024-02-09T14:33:52.179Z,22.95
2024-02-09T14:36:19.005Z,17.38
2024-02-09T14:38:46.009Z,16.63
2024-02-09T14:41:12.626Z,16.25
2024-02-09T14:43:41.547Z,17.00
2024-02-09T14:46:11.001Z,16.00
2024-02-09T14:48:38.490Z,16.40
2024-02-09T14:51:05.454Z,15.75
2024-02-09T14:53:33.906Z,18.83
2024-02-09T14:56:02.064Z,17.13
2024-02-09T14:58:28.757Z,16.10
2024-02-09T15:00:55.946Z,17.10
2024-02-09T15:03:24.044Z,17.15
2024-02-09T15:05:50.975Z,18.75
2024-02-09T15:08:18.932Z,16.45
2024-02-09T15:10:45.612Z,17.65
2024-02-09T15:13:14.801Z,18.23
2024-02-09T15:15:43.915Z,18.42
2024-02-09T15:18:10.727Z,17.98
2024-02-09T15:20:38.537Z,18.95
2024-02-09T15:23:06.354Z,19.83
2024-02-09T15:25:34.896Z,20.00
2024-02-09T15:28:02.354Z,20.80
2024-02-09T15:30:29.084Z,18.67
2024-02-09T15:32:55.917Z,20.65
2024-02-09T15:35:22.771Z,19.98
2024-02-09T15:37:49.594Z,20.85
2024-02-09T15:40:18.258Z,21.27
2024-02-09T15:42:46.363Z,21.75
2024-02-09T15:45:14.237Z,20.08
2024-02-09T15:47:43.804Z,20.40
2024-02-09T15:50:10.613Z,21.20
2024-02-09T15:52:37.251Z,21.55
2024-02-09T15:55:03.955Z,21.42
2024-02-09T15:57:30.625Z,25.67
2024-02-09T15:59:57.329Z,22.33
2024-02-09T16:02:24.177Z,22.08
2024-02-09T16:04:51.083Z,20.98
2024-02-09T16:07:17.868Z,21.10
2024-02-09T16:09:47.107Z,18.85
2024-02-09T16:12:14.069Z,20.25
2024-02-09T16:14:43.093Z,18.90
2024-02-09T16:17:09.920Z,20.35
2024-02-09T16:19:36.835Z,19.60
2024-02-09T16:22:03.686Z,18.90
2024-02-09T16:24:30.326Z,18.00
2024-02-09T16:26:56.970Z,19.92
2024-02-09T16:29:24.352Z,19.48
2024-02-09T16:31:51.921Z,19.88
2024-02-09T16:34:18.710Z,18.55
2024-02-09T16:36:45.382Z,17.55
2024-02-09T16:39:14.524Z,18.90
2024-02-09T16:41:41.773Z,17.10
2024-02-09T16:44:09.373Z,17.10
2024-02-09T16:46:36.581Z,18.10
2024-02-09T16:49:05.077Z,15.60
2024-02-09T16:51:31.928Z,18.83
2024-02-09T16:54:00.189Z,16.00
2024-02-09T16:56:27.028Z,16.10
2024-02-09T16:58:53.726Z,17.60
2024-02-09T17:01:22.402Z,15.35
2024-02-09T17:03:49.249Z,16.55
2024-02-09T17:06:16.242Z,16.02
2024-02-09T17:08:42.905Z,16.33
2024-02-09T17:11:09.742Z,17.15
2024-02-09T17:13:36.921Z,16.30
2024-02-09T17:16:05.086Z,16.67
2024-02-09T17:18:31.964Z,14.25
2024-02-09T17:20:58.592Z,16.15
2024-02-09T17:23:25.160Z,15.65
2024-02-09T17:25:52.917Z,14.70
2024-02-09T17:28:19.704Z,16.67
2024-02-09T17:30:48.203Z,13.70
2024-02-09T17:33:15.924Z,15.35
2024-02-09T17:35:42.767Z,14.57
2024-02-09T17:38:10.312Z,15.57
2024-02-09T17:40:37.485Z,18.00
2024-02-09T17:43:04.221Z,14.00
2024-02-09T17:45:31.304Z,17.58
2024-02-09T17:47:58.086Z,14.68
2024-02-09T17:50:24.714Z,17.23
2024-02-09T17:52:53.440Z,13.27
2024-02-09T17:55:20.759Z,12.52
2024-02-09T17:57:50.824Z,14.90
2024-02-09T18:00:18.476Z,14.60
2024-02-09T18:02:45.009Z,13.55
2024-02-09T18:05:12.329Z,14.80
2024-02-09T18:07:40.000Z,12.52
2024-02-09T18:10:07.135Z,11.35
2024-02-09T18:12:33.949Z,12.10
2024-02-09T18:15:00.737Z,13.38
2024-02-09T18:17:27.409Z,12.77
2024-02-09T18:19:54.180Z,16.75
2024-02-09T18:22:20.887Z,12.70
2024-02-09T18:24:50.318Z,12.52
2024-02-09T18:27:16.979Z,14.23
2024-02-09T18:29:43.582Z,12.95
2024-02-09T18:32:10.295Z,12.52
2024-02-09T18:34:37.363Z,13.80
2024-02-09T18:37:04.585Z,12.85
2024-02-09T18:39:31.437Z,9.95
2024-02-09T18:41:59.560Z,11.52
2024-02-09T18:44:27.933Z,13.70
2024-02-09T18:46:56.814Z,13.40
2024-02-09T18:49:25.097Z,11.05
2024-02-09T18:51:52.688Z,11.13
2024-02-09T18:54:19.455Z,10.88
2024-02-09T18:56:46.100Z,10.48
2024-02-09T18:59:12.793Z,10.35
2024-02-09T19:01:44.010Z,10.02
2024-02-09T19:04:14.134Z,9.40
2024-02-09T19:06:41.994Z,9.30
2024-02-09T19:09:10.319Z,9.95
2024-02-09T19:11:37.774Z,10.23
2024-02-09T19:14:05.038Z,8.25
2024-02-09T19:16:33.339Z,8.88
2024-02-09T19:19:02.716Z,8.93
2024-02-09T19:21:29.898Z,9.52
2024-02-09T19:23:56.571Z,8.73
2024-02-09T19:26:23.728Z,7.60
2024-02-09T19:28:52.427Z,9.20
2024-02-09T19:31:19.574Z,9.40
2024-02-09T19:33:49.442Z,8.80
2024-02-09T19:36:21.416Z,8.40
2024-02-09T19:38:48.814Z,8.93
2024-02-09T19:41:19.113Z,9.55
2024-02-09T19:43:46.782Z,7.65
2024-02-09T19:46:13.640Z,7.82
2024-02-09T19:48:41.539Z,8.32
2024-02-09T19:51:16.330Z,9.07
2024-02-09T19:53:43.481Z,9.10
2024-02-09T19:56:10.849Z,9.52
2024-02-09T19:58:37.695Z,9.10
2024-02-09T20:01:08.966Z,10.18
2024-02-09T20:03:35.782Z,9.30
2024-02-09T20:06:05.676Z,8.38
2024-02-09T20:08:33.049Z,8.52
2024-02-09T20:11:00.518Z,8.50
2024-02-09T20:13:27.781Z,9.48
2024-02-09T20:15:57.874Z,8.60
2024-02-09T20:18:26.787Z,7.50
2024-02-09T20:20:53.572Z,10.93
2024-02-09T20:23:20.186Z,9.40
2024-02-09T20:25:47.597Z,9.95
2024-02-09T20:28:14.366Z,8.73
2024-02-09T20:30:41.385Z,7.80
2024-02-09T20:33:08.810Z,10.60
2024-02-09T20:35:35.694Z,7.43
2024-02-09T20:38:06.718Z,8.02
2024-02-09T20:40:34.422Z,8.85
2024-02-09T20:43:01.756Z,8.32
2024-02-09T20:45:30.428Z,10.57
2024-02-09T20:47:59.084Z,11.70
2024-02-09T20:50:32.145Z,12.80
2024-02-09T20:53:03.096Z,12.35
2024-02-09T20:55:33.615Z,14.55
2024-02-09T20:58:04.309Z,13.75
2024-02-09T21:00:36.182Z,11.20
2024-02-09T21:03:06.150Z,11.07
2024-02-09T21:05:35.621Z,11.85
2024-02-09T21:08:06.502Z,11.60
2024-02-09T21:10:33.219Z,11.15
2024-02-09T21:13:02.756Z,12.43
2024-02-09T21:15:31.780Z,10.07
2024-02-09T21:17:59.617Z,10.65
2024-02-09T21:20:27.404Z,10.95
2024-02-09T21:22:57.838Z,11.98
2024-02-09T21:25:24.927Z,10.65
2024-02-09T21:27:51.940Z,10.85
2024-02-09T21:30:23.637Z,10.57
2024-02-09T21:32:55.248Z,11.77
2024-02-09T21:37:52.919Z,9.43
2024-02-09T21:40:19.953Z,8.60
2024-02-09T21:42:49.397Z,9.52
2024-02-09T21:45:16.004Z,12.77
2024-02-09T21:47:42.689Z,11.57
2024-02-09T21:50:09.587Z,10.10
2024-02-09T21:52:38.400Z,9.25
2024-02-09T21:55:07.866Z,11.82
2024-02-09T21:57:35.642Z,7.15
2024-02-09T22:00:08.899Z,9.10
2024-02-09T22:02:35.501Z,10.88
2024-02-09T22:05:02.240Z,8.93
2024-02-09T22:07:29.276Z,9.05
2024-02-09T22:09:57.267Z,9.00
2024-02-09T22:12:27.462Z,7.97
2024-02-09T22:14:58.327Z,10.18
2024-02-09T22:17:38.552Z,9.65
2024-02-09T22:20:06.552Z,8.80
2024-02-09T22:22:33.812Z,9.85
2024-02-09T22:25:02.331Z,7.88
2024-02-09T22:27:29.549Z,8.15
2024-02-09T22:29:58.407Z,10.55
2024-02-09T22:32:25.078Z,9.20
2024-02-09T22:34:52.004Z,12.98
2024-02-09T22:37:18.960Z,8.27
2024-02-09T22:39:46.450Z,7.63
2024-02-09T22:42:13.884Z,8.98
2024-02-09T22:44:43.585Z,8.43
2024-02-09T22:47:10.571Z,8.52
2024-02-09T22:49:37.338Z,9.38
2024-02-09T22:52:04.287Z,8.82
2024-02-09T22:54:30.890Z,6.03
2024-02-09T22:56:57.541Z,9.82
2024-02-09T22:59:24.096Z,9.35
2024-02-09T23:01:53.313Z,9.35
2024-02-09T23:04:22.544Z,9.98
2024-02-09T23:06:49.936Z,9.57
2024-02-09T23:09:17.558Z,8.75
2024-02-09T23:11:47.883Z,7.88
2024-02-09T23:14:19.391Z,7.38
2024-02-09T23:16:48.220Z,7.47
2024-02-09T23:19:19.971Z,5.78
2024-02-09T23:24:22.137Z,7.03
2024-02-09T23:26:53.153Z,7.72
2024-02-09T23:29:22.254Z,7.10
2024-02-09T23:31:49.207Z,7.80
2024-02-09T23:34:19.587Z,9.15
2024-02-09T23:36:48.027Z,7.43
2024-02-09T23:39:15.618Z,7.22
2024-02-09T23:41:42.246Z,7.35
2024-02-09T23:44:08.801Z,7.45
2024-02-09T23:46:35.766Z,5.47
2024-02-09T23:49:02.935Z,8.68
2024-02-09T23:51:29.644Z,9.10
2024-02-09T23:53:56.194Z,5.68
2024-02-09T23:56:23.411Z,8.00
2024-02-09T23:58:53.368Z,8.73
